PAKTPAGY

Guest
Details From PAKT - KETCHIKAN INTL
To PAGY - SKAGWAY
Flight Number -
Tags decoded
Created
Modified
Stats Distance 278 nm / 516 km
Max Altitude 0 ft / 0 m
Waypoints 5
Social Downloads 1
Likes 0
Share VATSIM

Download

Looking for another format? Having issues loading an existing format? Contact us
Advertisement - Login to hide

Notes

Requested: PAKT LVD MARMN HNS PAGY

Route

PAKT LVD MARMN HNS PAGY

ID Type Via Altitude Latitude Longitude Leg Dist Tot Dist Heading (true) Name
O PAKT APT - 0 ft / 0 m 55.35554˚ -131.71374˚ - 0 nm - KETCHIKAN INTL
LVD VOR - 0 ft / 0 m 56.46772˚ -133.08311˚ 81 nm 81 nm 326° / 325° LEVEL ISLAND VOR-DME
MARMN FIX - 0 ft / 0 m 58.19276˚ -134.21978˚ 109 nm 191 nm 341° / 340° -
HNS NDB - 0 ft / 0 m 59.21208˚ -135.43086˚ 71 nm 263 nm 329° / 328° HAINES NDB
O PAGY APT - 0 ft / 0 m 59.46006˚ -135.31566˚ 15 nm 278 nm 13° / 13° SKAGWAY

Altitude Profile

Advertisement - Login to hide

Weather


0- 5 10 15 20 25 30 35+ Temperature / ° C

Clouds and Precipitation
Forecast for 2018-05-26 12:00 UTC. Updated 3 hours ago

Ground ~20,000 ft ~40,000 ft Winds

PAKT

Details ICAO PAKT (KTN)
Name KETCHIKAN INTL
Region USA (Alaska)
Timezone Unknown (UTC+0.0)
Stats Elevation 88 ft / 27 m (AMSL)
Location 55.355545° -131.713737°
Runways 1
Magnetic Variation 18.427° E

METAR

PAKT 261412Z 15013KT 10SM -RA SCT015 OVC030 07/04 A2986

Decode

TAF

PAKT 261312Z 2613/2712 15007KT P6SM -RA SCT015 BKN035 OVC050 FM261500 14012G18KT 6SM -RA BR SCT025 OVC035 FM261700 13015G35KT 5SM -RA BR SCT010 OVC025 WS020/14045KT FM270500 13012G20KT 6SM -SHRA BR SCT015 OVC025 WS020/15030KT FM270900 14012KT P6SM -SHRA OVC015 AMD LTD TO CLD VIS AND WIND TIL 261500

Decode

Departure Runways

ID Width Length Bearing (true) Bearing (mag) Surface Threshold Offset Overrun Length
11 150 ft / 46 m 7,485 ft / 2,281 m 135.66° 117.23° Asphalt 0 ft / 0 m 200 ft / 61 m
29 150 ft / 46 m 7,485 ft / 2,281 m 315.68° 297.25° Asphalt 0 ft / 0 m 100 ft / 30 m

PAGY

Details ICAO PAGY (SGY)
Name SKAGWAY
Region USA (Alaska)
Timezone America/Juneau (UTC-8.0)
Stats Elevation 44 ft / 13 m (AMSL)
Location 59.460062° -135.315661°
Runways 1
Magnetic Variation 19.210° E

METAR

PAGY 261353Z AUTO 00000KT 10SM OVC037 08/07 A2974 RMK AO2 RAB32E48 SLP070 P0000 T00780067 TSNO

Decode

TAF

PAGY 261127Z 2612/2712 04004KT P6SM -SHRA BKN050 OVC070 FM261500 22004KT P6SM -RA BKN050 OVC070 FM262100 21012KT P6SM -RA OVC050 FM270600 22004KT P6SM VCSH OVC050 AMD LTD TO CLD VIS AND WIND

Decode

Destination Runways

ID Width Length Bearing (true) Bearing (mag) Surface Threshold Offset Overrun Length
02 75 ft / 23 m 3,542 ft / 1,080 m 43.94° 24.73° Asphalt 0 ft / 0 m 299 ft / 91 m
20 75 ft / 23 m 3,542 ft / 1,080 m 223.95° 204.74° Asphalt 0 ft / 0 m 299 ft / 91 m

Popular Alternatives